Terminal Aerodrome Forecast
Issued by NWS

Home | Current Version | Previous Version | Graphics & Text | Print | Product List | Glossary Off
Versions: 1 2 3 4 5 6 7 8 9 10 11 12 13

000
FTUS43 KICT 311720
TAFSLN
TAF
KSLN 311720Z 3118/0118 03012KT P6SM SKC
     FM312300 06008KT P6SM SKC
     FM010400 09006KT P6SM SKC
     FM011400 15014KT P6SM SCT250
     FM011700 16019G27KT P6SM SCT250=

USA.gov is the U.S. government's official web portal to all federal, state and local government web resources and services.